Time;durP1;ratioP1;P1;durP2;ratioP2;P2;SDS_P1;SDS_P2;PMS_P1;PMS_P2;Temp;Humidity;BMP_temperature;BMP_pressure;BME280_temperature;BME280_humidity;BME280_pressure;Samples;Min_cycle;Max_cycle;Signal;HPM_P1;HPM_P2
2021/09/22 04:39:20;;;;;;;1.75;1.65;;;;;;;7.62;86.49;100093.25;1688928;82;21990;-31
2021/09/22 04:42:06;;;;;;;1.82;1.07;;;;;;;7.59;86.64;100087.13;1655154;85;21002;-37
2021/09/22 04:44:53;;;;;;;1.27;1.02;;;;;;;7.62;86.92;100089.78;1660272;85;21073;-36
2021/09/22 04:47:38;;;;;;;0.95;0.95;;;;;;;7.64;86.82;100085.45;1663495;84;20970;-37
2021/09/22 04:50:24;;;;;;;0.90;0.90;;;;;;;7.68;86.74;100082.88;1650199;85;21540;-33
2021/09/22 04:53:09;;;;;;;1.67;0.90;;;;;;;7.73;86.34;100081.20;1634848;85;21616;-37
2021/09/22 04:55:54;;;;;;;0.80;0.80;;;;;;;7.76;86.15;100092.48;1654961;85;21087;-32
2021/09/22 04:58:42;;;;;;;0.90;0.90;;;;;;;7.75;86.19;100089.02;1656462;86;21136;-32
2021/09/22 05:01:28;;;;;;;1.17;1.00;;;;;;;7.76;86.55;100078.16;1658275;85;21069;-37
2021/09/22 05:04:14;;;;;;;1.67;0.95;;;;;;;7.79;86.55;100077.77;1651482;85;21566;-37
2021/09/22 05:06:59;;;;;;;2.52;0.90;;;;;;;7.83;86.48;100071.73;1652070;85;21069;-37
2021/09/22 05:09:44;;;;;;;0.98;0.80;;;;;;;7.87;86.53;100081.29;1647829;85;21029;-34
2021/09/22 05:12:31;;;;;;;1.42;0.70;;;;;;;7.88;85.92;100077.81;1651290;85;21668;-38
2021/09/22 05:15:17;;;;;;;1.20;0.60;;;;;;;7.90;86.11;100085.23;1654848;85;21069;-38
2021/09/22 05:18:02;;;;;;;3.05;1.32;;;;;;;7.93;85.85;100078.73;1647141;85;21002;-38
2021/09/22 05:20:47;;;;;;;1.22;1.00;;;;;;;7.98;84.49;100080.94;1645173;85;21017;-36
2021/09/22 05:23:53;;;;;;;1.00;0.90;;;;;;;7.96;83.82;100082.67;1650216;85;21080;-37
2021/09/22 05:27:18;;;;;;;1.65;1.00;;;;;;;7.92;83.06;100081.33;1651062;85;21071;-38
2021/09/22 05:30:48;;;;;;;1.12;1.02;;;;;;;7.87;83.38;100082.59;1644646;85;21682;-39
2021/09/22 05:41:24;;;;;;;2.27;1.82;;;;;;;7.87;83.34;100076.08;1647624;85;21041;-33
2021/09/22 05:44:22;;;;;;;1.37;1.20;;;;;;;7.92;83.01;100069.61;1652655;85;21478;-38
2021/09/22 05:47:16;;;;;;;5.08;1.47;;;;;;;7.95;83.04;100067.04;1584825;88;21090;-38
2021/09/22 05:50:33;;;;;;;1.57;1.40;;;;;;;7.97;82.37;100070.08;1584197;88;21109;-32
2021/09/22 05:53:20;;;;;;;1.40;1.20;;;;;;;8.00;82.85;100074.43;1555745;88;21714;-37
2021/09/22 05:56:15;;;;;;;2.55;1.72;;;;;;;8.07;82.62;100064.95;1560148;89;21941;-32
2021/09/22 05:58:56;;;;;;;3.25;1.98;;;;;;;8.21;82.21;100068.06;1541235;91;21149;-37
2021/09/22 06:01:42;;;;;;;2.10;1.80;;;;;;;8.39;82.44;100071.23;1541823;91;21051;-32
2021/09/22 06:04:27;;;;;;;2.20;1.60;;;;;;;8.63;81.29;100061.78;1541978;90;21701;-33
2021/09/22 06:06:57;;;;;;;2.90;1.60;;;;;;;8.77;80.57;100065.34;1510512;93;21138;-33
2021/09/22 06:09:28;;;;;;;1.95;1.37;;;;;;;8.84;79.66;100057.96;1542034;91;21159;-32
2021/09/22 06:12:10;;;;;;;2.35;1.35;;;;;;;8.86;78.12;100055.34;1531679;92;21114;-37
2021/09/22 06:14:38;;;;;;;1.50;1.40;;;;;;;8.84;77.18;100047.52;1517813;92;21094;-32
2021/09/22 06:17:07;;;;;;;1.62;1.30;;;;;;;8.86;77.13;100054.05;1537823;91;21191;-31
2021/09/22 06:19:34;;;;;;;2.98;1.35;;;;;;;8.92;76.57;100054.06;1534349;91;21047;-32
2021/09/22 06:22:03;;;;;;;1.55;1.15;;;;;;;8.99;77.54;100055.84;1554154;90;21162;-37
2021/09/22 06:24:32;;;;;;;1.45;1.35;;;;;;;9.12;77.01;100061.52;1563563;91;21666;-38
2021/09/22 06:27:03;;;;;;;5.45;1.35;;;;;;;9.19;75.83;100069.80;1559410;90;21106;-38
2021/09/22 06:29:30;;;;;;;1.32;1.22;;;;;;;9.21;76.30;100052.82;1560572;91;21067;-33
2021/09/22 06:31:58;;;;;;;2.30;1.40;;;;;;;9.22;76.80;100055.86;1558831;90;21107;-33
2021/09/22 06:34:32;;;;;;;1.40;1.30;;;;;;;9.27;76.22;100060.22;1566409;86;21175;-38
2021/09/22 06:36:59;;;;;;;1.50;1.02;;;;;;;9.25;75.62;100060.66;1648366;86;21005;-38
2021/09/22 06:39:28;;;;;;;4.15;1.00;;;;;;;9.22;75.58;100063.70;1651938;84;21083;-38
2021/09/22 06:41:55;;;;;;;0.85;0.85;;;;;;;9.09;76.13;100060.20;1679896;83;21040;-33
2021/09/22 06:44:24;;;;;;;1.12;1.02;;;;;;;8.92;77.76;100067.11;1627995;86;21100;-38
2021/09/22 06:46:52;;;;;;;1.07;0.90;;;;;;;8.76;78.91;100070.12;1645684;85;21045;-33
2021/09/22 06:49:19;;;;;;;1.35;1.20;;;;;;;8.65;79.38;100072.68;1644538;85;21057;-38
2021/09/22 06:51:46;;;;;;;1.50;1.40;;;;;;;8.58;80.12;100068.31;1644711;86;21069;-38
2021/09/22 06:54:18;;;;;;;1.20;1.10;;;;;;;8.57;81.34;100064.37;1644882;86;21643;-33
2021/09/22 06:56:45;;;;;;;2.02;0.82;;;;;;;8.56;81.75;100066.11;1651028;85;21041;-38
2021/09/22 06:59:15;;;;;;;1.10;1.02;;;;;;;8.58;81.63;100063.50;1646157;86;21065;-33
2021/09/22 07:01:45;;;;;;;1.22;0.88;;;;;;;8.64;81.59;100067.03;1649575;85;21054;-32
2021/09/22 07:04:12;;;;;;;3.33;1.35;;;;;;;8.78;81.81;100073.59;1644738;85;21084;-33
2021/09/22 07:06:38;;;;;;;3.30;1.15;;;;;;;8.88;80.15;100074.51;1647711;86;21549;-38
2021/09/22 07:09:06;;;;;;;0.90;0.90;;;;;;;8.95;80.02;100080.17;1649242;85;21112;-38
2021/09/22 07:11:33;;;;;;;1.20;1.10;;;;;;;8.98;79.46;100077.56;1646736;86;21056;-31
2021/09/22 07:14:01;;;;;;;3.72;2.10;;;;;;;8.98;79.09;100078.86;1648063;85;21037;-33
2021/09/22 07:16:28;;;;;;;1.40;1.05;;;;;;;8.97;79.05;100074.52;1648296;85;21576;-33
2021/09/22 07:18:57;;;;;;;1.05;0.90;;;;;;;8.97;78.28;100075.39;1643878;85;21954;-40
2021/09/22 07:21:25;;;;;;;1.47;0.98;;;;;;;8.99;77.33;100078.89;1640503;86;21322;-40
2021/09/22 07:23:54;;;;;;;0.70;0.60;;;;;;;8.99;77.58;100080.63;1648401;85;21160;-40
2021/09/22 07:26:21;;;;;;;1.75;0.80;;;;;;;8.94;77.88;100085.83;1647850;85;21048;-40
2021/09/22 07:28:49;;;;;;;1.30;0.80;;;;;;;8.90;78.33;100081.45;1644319;85;21053;-40
2021/09/22 07:31:16;;;;;;;0.85;0.85;;;;;;;8.83;79.28;100091.44;1650672;85;21640;-40
2021/09/22 07:33:44;;;;;;;0.90;0.90;;;;;;;8.70;80.82;100086.61;1656856;84;21069;-34
2021/09/22 07:36:11;;;;;;;2.15;0.65;;;;;;;8.63;82.26;100083.52;1653073;85;21053;-34
2021/09/22 07:38:40;;;;;;;1.82;0.37;;;;;;;8.58;83.52;100081.75;1653612;84;21021;-40
2021/09/22 07:41:07;;;;;;;1.05;0.70;;;;;;;8.57;82.82;100085.23;1649083;85;21537;-35
2021/09/22 07:43:35;;;;;;;1.47;0.72;;;;;;;8.57;82.61;100072.19;1643667;85;21018;-35
2021/09/22 07:46:04;;;;;;;0.98;0.68;;;;;;;8.64;82.16;100077.86;1648149;85;21620;-35
2021/09/22 07:48:34;;;;;;;0.70;0.70;;;;;;;8.75;81.82;100077.48;1617259;86;21063;-41
2021/09/22 07:51:03;;;;;;;1.00;0.70;;;;;;;8.88;81.31;100068.86;1646170;85;21085;-33
2021/09/22 07:53:31;;;;;;;1.07;0.85;;;;;;;9.05;81.10;100066.30;1652377;84;20997;-38
2021/09/22 07:55:59;;;;;;;1.00;0.50;;;;;;;9.22;79.60;100069.81;1652951;83;21053;-32
2021/09/22 07:58:26;;;;;;;1.27;1.05;;;;;;;9.37;78.15;100065.47;1650962;84;21965;-38
2021/09/22 08:00:57;;;;;;;0.70;0.70;;;;;;;9.47;76.73;100069.41;1647420;85;21045;-33
2021/09/22 08:03:25;;;;;;;;;;;;;;;9.55;74.80;100065.05;1649017;85;21066;-41
2021/09/22 08:05:52;;;;;;;0.80;0.80;;;;;;;9.61;73.48;100057.64;1645401;85;20147;-33
2021/09/22 08:08:21;;;;;;;1.05;0.68;;;;;;;9.65;72.29;100059.84;1645629;85;21069;-34
2021/09/22 08:10:51;;;;;;;0.82;0.80;;;;;;;9.71;72.40;100054.61;1644327;85;21934;-33
2021/09/22 08:13:25;;;;;;;1.30;1.20;;;;;;;9.79;72.12;100048.49;1643541;85;21227;-32
2021/09/22 08:16:15;;;;;;;1.75;1.00;;;;;;;9.86;71.03;100050.69;1642610;83;21061;-38
2021/09/22 08:19:50;;;;;;;3.47;1.20;;;;;;;9.94;71.14;100046.31;1643131;85;21423;-38
2021/09/22 08:23:16;;;;;;;2.02;1.27;;;;;;;10.01;69.84;100052.40;1645014;83;21013;-32
2021/09/22 08:25:50;;;;;;;1.55;1.07;;;;;;;10.05;69.29;100042.38;1646327;85;21052;-38
2021/09/22 08:28:26;;;;;;;1.62;1.10;;;;;;;10.09;69.15;100045.43;1647258;83;21140;-32
2021/09/22 08:30:53;;;;;;;1.55;1.15;;;;;;;10.11;69.10;100041.92;1646811;85;21651;-33
2021/09/22 08:33:39;;;;;;;1.77;1.00;;;;;;;10.10;69.13;100041.94;1646615;85;21494;-33
2021/09/22 08:36:12;;;;;;;1.57;1.07;;;;;;;10.09;68.09;100044.99;1648478;85;21486;-33
2021/09/22 08:38:40;;;;;;;2.22;1.00;;;;;;;10.02;68.57;100038.02;1646135;85;21381;-33
2021/09/22 08:41:08;;;;;;;0.82;0.82;;;;;;;9.97;68.50;100035.88;1667133;84;21049;-32
2021/09/22 08:43:35;;;;;;;1.00;0.80;;;;;;;9.93;68.73;100031.95;1625399;86;21615;-32
2021/09/22 08:46:19;;;;;;;0.93;0.80;;;;;;;9.90;69.68;100035.42;1629225;86;21088;-37
2021/09/22 08:48:46;;;;;;;0.70;0.70;;;;;;;9.91;69.13;100034.98;1628536;86;21078;-38
2021/09/22 08:51:15;;;;;;;0.90;0.78;;;;;;;9.89;69.49;100032.38;1630697;86;21055;-37
2021/09/22 08:53:44;;;;;;;4.70;0.80;;;;;;;9.84;67.98;100034.99;1629472;86;21123;-38
2021/09/22 08:56:12;;;;;;;1.47;0.70;;;;;;;9.76;69.12;100039.37;1632087;86;21471;-38
2021/09/22 08:58:39;;;;;;;0.78;0.70;;;;;;;9.66;69.14;100034.14;1631763;86;21113;-33
2021/09/22 09:01:12;;;;;;;0.42;0.42;;;;;;;9.53;69.95;100035.89;1633011;86;21051;-38
2021/09/22 09:03:43;;;;;;;1.67;0.80;;;;;;;9.41;70.76;100036.76;1646869;85;21089;-39
2021/09/22 09:06:26;;;;;;;0.60;0.60;;;;;;;9.37;71.96;100041.97;1643766;86;21608;-37
2021/09/22 09:09:09;;;;;;;0.95;0.75;;;;;;;9.33;72.40;100045.00;1659118;84;21069;-32
2021/09/22 09:11:40;;;;;;;0.72;0.70;;;;;;;9.28;72.30;100037.19;1617573;86;21462;-38
2021/09/22 09:14:08;;;;;;;1.45;1.07;;;;;;;9.29;72.44;100038.06;1643479;85;21061;-38
2021/09/22 09:16:41;;;;;;;1.05;0.95;;;;;;;9.30;72.83;100027.61;1650366;85;21084;-38
2021/09/22 09:19:19;;;;;;;0.80;0.80;;;;;;;9.40;72.80;100034.16;1644486;86;21109;-32
2021/09/22 09:22:05;;;;;;;1.15;1.05;;;;;;;9.45;73.11;100028.06;1636200;86;21472;-33
2021/09/22 09:24:51;;;;;;;0.80;0.80;;;;;;;9.59;73.32;100024.14;1646173;86;21072;-32
2021/09/22 09:27:35;;;;;;;0.98;0.93;;;;;;;9.75;71.93;100018.03;1656380;85;21036;-37
2021/09/22 09:30:35;;;;;;;1.10;1.00;;;;;;;9.86;71.60;100019.34;1623262;86;21005;-31
2021/09/22 09:33:47;;;;;;;2.05;1.20;;;;;;;9.99;71.80;100014.95;1597726;87;21745;-38
2021/09/22 09:36:50;;;;;;;1.20;1.12;;;;;;;10.15;71.29;100015.36;1680859;83;21033;-38
2021/09/22 09:39:34;;;;;;;1.00;0.80;;;;;;;10.26;70.35;100016.63;1676144;83;21681;-33
2021/09/22 09:42:01;;;;;;;1.50;0.90;;;;;;;10.27;69.05;100015.78;1644650;86;21057;-33
2021/09/22 09:44:30;;;;;;;0.80;0.80;;;;;;;10.27;68.87;100019.71;1674972;83;21517;-32
2021/09/22 09:47:19;;;;;;;1.75;1.00;;;;;;;10.22;68.27;100011.84;1643130;86;21009;-33
2021/09/22 09:50:21;;;;;;;1.50;1.12;;;;;;;10.11;68.36;100018.84;1649172;85;21578;-38
2021/09/22 09:52:51;;;;;;;1.85;1.22;;;;;;;10.00;68.84;100016.69;1674569;83;21097;-38
2021/09/22 09:55:20;;;;;;;1.20;1.10;;;;;;;9.97;68.73;100021.91;1676402;84;21607;-33
2021/09/22 09:57:49;;;;;;;1.40;1.30;;;;;;;9.90;67.75;100020.18;1676737;85;21120;-37
2021/09/22 10:00:19;;;;;;;1.72;1.60;;;;;;;9.79;68.45;100021.06;1674842;84;21441;-31
2021/09/22 10:02:45;;;;;;;2.17;1.98;;;;;;;9.71;69.39;100020.21;1676536;83;21080;-35
2021/09/22 10:05:57;;;;;;;1.70;1.47;;;;;;;9.64;70.17;100018.48;1673777;83;21100;-37
2021/09/22 10:09:56;;;;;;;1.50;1.40;;;;;;;9.55;69.71;100025.00;1672351;84;21096;-31
2021/09/22 10:18:05;;;;;;;2.02;1.47;;;;;;;9.25;71.58;100029.34;1648977;85;21389;-37
2021/09/22 10:24:58;;;;;;;2.50;1.52;;;;;;;9.38;71.74;100027.60;1650032;86;21041;-32
2021/09/22 10:28:03;;;;;;;3.02;1.70;;;;;;;9.43;72.72;100018.47;1648970;85;21021;-32
2021/09/22 10:30:38;;;;;;;1.62;1.52;;;;;;;9.48;72.08;100020.66;1676487;85;21009;-32
2021/09/22 10:33:06;;;;;;;2.22;1.47;;;;;;;9.55;72.08;100021.08;1679995;85;20999;-37
2021/09/22 10:35:35;;;;;;;2.30;1.57;;;;;;;9.64;72.47;100018.48;1650957;85;21017;-37
2021/09/22 10:38:23;;;;;;;1.60;1.50;;;;;;;9.72;71.88;100022.38;1647396;86;21386;-37
2021/09/22 10:40:56;;;;;;;1.30;1.20;;;;;;;9.77;72.23;100014.98;1668442;84;20974;-38
2021/09/22 10:43:25;;;;;;;1.40;1.27;;;;;;;9.80;70.54;100020.66;1655872;85;21125;-38
2021/09/22 10:46:15;;;;;;;1.40;1.30;;;;;;;9.77;69.33;100015.41;1657110;84;21082;-37
2021/09/22 10:48:57;;;;;;;2.30;1.22;;;;;;;9.70;69.24;100013.69;1659703;84;21047;-37
2021/09/22 10:51:32;;;;;;;1.07;1.02;;;;;;;9.62;69.39;100012.80;1656034;84;21354;-32
2021/09/22 10:54:19;;;;;;;3.15;1.25;;;;;;;9.55;69.68;100016.73;1612094;86;21062;-39
2021/09/22 10:56:54;;;;;;;2.25;1.45;;;;;;;9.52;69.91;100014.13;1652766;84;21562;-39
2021/09/22 10:59:29;;;;;;;1.20;1.02;;;;;;;9.48;70.74;100020.66;1657765;84;21536;-34
2021/09/22 11:01:56;;;;;;;3.42;1.20;;;;;;;9.44;70.83;100025.00;1622067;86;21033;-33
2021/09/22 11:04:24;;;;;;;1.55;1.32;;;;;;;9.36;70.75;100025.44;1598377;87;21121;-33
2021/09/22 11:07:17;;;;;;;1.32;1.22;;;;;;;9.26;71.45;100024.98;1601382;88;21062;-33
2021/09/22 11:09:57;;;;;;;1.65;1.40;;;;;;;9.21;71.59;100019.75;1586845;88;21081;-33
2021/09/22 11:12:26;;;;;;;2.22;1.77;;;;;;;9.16;72.41;100028.45;1591032;88;21131;-33
2021/09/22 11:14:58;;;;;;;2.22;2.00;;;;;;;9.12;72.66;100030.64;1558005;89;21544;-33
2021/09/22 11:17:27;;;;;;;2.17;1.95;;;;;;;9.11;73.08;100026.30;1654959;85;21631;-33
2021/09/22 11:19:59;;;;;;;3.02;2.20;;;;;;;9.11;73.25;100030.20;1644976;85;20988;-34
2021/09/22 11:30:37;;;;;;;2.70;1.62;;;;;;;9.28;72.93;100017.61;1799747;79;23796;-36
2021/09/22 11:33:04;;;;;;;1.35;1.15;;;;;;;9.27;72.96;100015.84;1766602;79;21650;-37
2021/09/22 11:35:31;;;;;;;2.10;1.50;;;;;;;9.33;72.46;100014.58;1773374;79;20962;-38
2021/09/22 11:37:59;;;;;;;1.62;1.40;;;;;;;9.41;72.16;100011.09;1704786;82;21094;-38
2021/09/22 11:40:31;;;;;;;3.00;1.55;;;;;;;9.46;72.49;100010.22;1713957;81;21030;-37
2021/09/22 11:43:06;;;;;;;;;;;;;;;9.54;71.97;100008.46;1717206;81;21066;-41
2021/09/22 11:45:36;;;;;;;1.30;1.10;;;;;;;9.62;71.45;100012.80;1713165;81;20456;-34
2021/09/22 11:48:04;;;;;;;3.60;1.55;;;;;;;9.65;71.56;100003.67;1710011;82;21047;-34
2021/09/22 11:50:38;;;;;;;2.30;1.52;;;;;;;9.72;71.86;100000.17;1718047;81;22043;-33
2021/09/22 11:53:10;;;;;;;5.97;1.60;;;;;;;9.79;71.52;99997.98;1708668;81;21046;-34
2021/09/22 11:55:40;;;;;;;4.28;1.90;;;;;;;9.83;70.91;100008.44;1720936;81;21019;-33
2021/09/22 11:58:14;;;;;;;6.67;1.65;;;;;;;9.86;71.16;100005.83;1707827;81;21060;-33
2021/09/22 12:00:42;;;;;;;2.62;1.62;;;;;;;9.88;71.12;99997.98;1712264;81;21054;-33
2021/09/22 12:03:10;;;;;;;1.98;1.62;;;;;;;9.90;71.30;99997.53;1703298;81;21088;-34
2021/09/22 12:05:38;;;;;;;1.40;1.12;;;;;;;9.91;71.59;99999.70;1709839;81;21046;-35
2021/09/22 12:08:05;;;;;;;1.60;1.40;;;;;;;9.95;71.77;100003.63;1693465;83;21044;-34
2021/09/22 12:10:33;;;;;;;1.92;1.10;;;;;;;9.99;71.53;99998.83;1711224;81;21074;-34
2021/09/22 12:13:04;;;;;;;1.75;1.15;;;;;;;10.05;71.78;99997.51;1706839;81;21097;-34
2021/09/22 12:15:32;;;;;;;1.60;1.25;;;;;;;10.11;71.59;99998.80;1711579;81;21041;-34
2021/09/22 12:18:00;;;;;;;1.20;1.10;;;;;;;10.16;69.57;99996.61;1710352;81;21436;-34
2021/09/22 12:20:28;;;;;;;1.50;1.07;;;;;;;10.18;69.59;99999.64;1717750;81;21094;-33
2021/09/22 12:23:06;;;;;;;1.15;1.05;;;;;;;10.21;68.66;99997.48;1700888;83;21072;-33
2021/09/22 12:25:34;;;;;;;1.62;1.00;;;;;;;10.25;67.59;99997.91;1712378;81;21038;-33
2021/09/22 12:28:02;;;;;;;1.22;1.12;;;;;;;10.24;67.43;100001.41;1717752;81;21082;-34
2021/09/22 12:30:38;;;;;;;4.10;1.87;;;;;;;10.20;67.09;99997.88;1732708;82;21030;-33
2021/09/22 12:33:06;;;;;;;1.52;1.40;;;;;;;10.15;66.58;99997.05;1709794;82;21046;-33
2021/09/22 12:35:36;;;;;;;3.85;1.35;;;;;;;10.08;67.07;99992.25;1741385;81;21046;-33
2021/09/22 12:38:05;;;;;;;1.25;1.10;;;;;;;10.02;67.62;100004.03;1725011;81;21553;-33
2021/09/22 12:40:36;;;;;;;3.40;1.85;;;;;;;9.95;68.50;100005.37;1721947;82;20991;-33
2021/09/22 12:43:07;;;;;;;6.90;2.33;;;;;;;9.85;69.50;100001.45;1726880;82;21059;-40
2021/09/22 12:45:36;;;;;;;4.58;2.70;;;;;;;9.78;70.36;100004.95;1734427;82;21074;-37
2021/09/22 12:48:06;;;;;;;6.60;2.50;;;;;;;9.73;71.05;99999.30;1711310;81;21038;-38
2021/09/22 12:50:42;;;;;;;2.67;2.10;;;;;;;9.66;71.35;100002.36;1738643;82;21023;-38
2021/09/22 12:53:11;;;;;;;3.42;2.00;;;;;;;9.62;71.47;99996.69;1727142;81;21021;-33
2021/09/22 12:55:44;;;;;;;3.65;2.20;;;;;;;9.60;71.86;100005.84;1737936;81;21056;-32
2021/09/22 12:58:13;;;;;;;2.58;1.98;;;;;;;9.59;72.05;100001.50;1724732;82;21046;-33
2021/09/22 13:00:55;;;;;;;1.77;1.50;;;;;;;9.60;71.90;99995.40;1713683;82;20987;-33
2021/09/22 13:03:27;;;;;;;3.17;1.85;;;;;;;9.58;71.81;99995.84;1700008;82;21076;-32
2021/09/22 13:06:06;;;;;;;2.45;2.12;;;;;;;9.57;72.26;99999.33;1719200;82;21524;-32
2021/09/22 13:08:56;;;;;;;1.80;1.50;;;;;;;9.59;72.23;99998.02;1705381;82;21123;-33
2021/09/22 13:11:22;;;;;;;1.90;1.62;;;;;;;9.58;71.92;99988.45;1719706;82;21036;-32
2021/09/22 13:14:19;;;;;;;2.20;1.87;;;;;;;9.62;71.88;99982.77;1705480;82;21063;-33
2021/09/22 13:16:55;;;;;;;3.17;2.37;;;;;;;9.65;72.05;99984.95;1717283;82;21012;-32
2021/09/22 13:19:29;;;;;;;2.15;1.75;;;;;;;9.71;72.19;99985.37;1711117;82;21167;-31
2021/09/22 13:22:01;;;;;;;4.03;2.30;;;;;;;9.78;71.80;99987.11;1714766;82;20988;-32
2021/09/22 13:24:31;;;;;;;7.08;3.08;;;;;;;9.83;71.75;99990.58;1712484;82;21131;-32
2021/09/22 13:27:00;;;;;;;18.23;6.87;;;;;;;9.86;71.43;99994.08;1703102;83;21086;-32
2021/09/22 13:29:28;;;;;;;7.83;3.87;;;;;;;9.90;71.18;99994.91;1705893;82;21029;-32
2021/09/22 13:32:06;;;;;;;12.28;4.80;;;;;;;9.89;71.14;99997.10;1693957;83;21704;-33
2021/09/22 13:34:32;;;;;;;3.50;2.20;;;;;;;9.90;71.21;99996.66;1742951;79;21684;-31
2021/09/22 13:37:02;;;;;;;1.62;1.50;;;;;;;9.90;71.50;99995.36;1745625;79;21014;-31
2021/09/22 13:39:30;;;;;;;2.40;1.30;;;;;;;9.91;71.38;99989.25;1734802;79;21074;-31
2021/09/22 13:41:57;;;;;;;3.02;1.62;;;;;;;9.92;71.19;99991.88;1765394;79;21048;-32
2021/09/22 13:44:26;;;;;;;8.13;3.77;;;;;;;9.88;71.40;99994.06;1746853;80;21049;-31
2021/09/22 13:46:55;;;;;;;2.17;1.98;;;;;;;9.84;71.13;99997.11;1724564;79;21061;-31
2021/09/22 13:49:22;;;;;;;1.40;1.30;;;;;;;9.82;71.19;99995.38;1746926;79;21768;-31
2021/09/22 13:51:49;;;;;;;1.60;1.50;;;;;;;9.81;71.30;99992.34;1757980;81;20994;-31
2021/09/22 13:54:17;;;;;;;2.27;1.57;;;;;;;9.78;71.14;99996.25;1727336;81;21088;-32
2021/09/22 13:56:46;;;;;;;1.92;1.50;;;;;;;9.74;71.17;99998.42;1723600;79;21020;-31
2021/09/22 13:59:14;;;;;;;2.87;1.90;;;;;;;9.66;71.22;99996.27;1731349;79;21071;-32
2021/09/22 14:01:43;;;;;;;3.08;1.52;;;;;;;9.58;71.44;99999.77;1767358;81;21499;-34
2021/09/22 14:04:13;;;;;;;1.55;1.45;;;;;;;9.50;71.69;99994.96;1743673;79;21057;-32
2021/09/22 14:06:41;;;;;;;2.15;1.72;;;;;;;9.42;72.25;99998.46;1682863;83;21430;-32
2021/09/22 14:09:08;;;;;;;4.65;2.25;;;;;;;9.30;73.04;100001.94;1691186;83;21098;-32
2021/09/22 14:11:35;;;;;;;3.35;2.12;;;;;;;9.18;73.47;100001.50;1687946;83;21039;-31
2021/09/22 14:17:11;;;;;;;4.20;1.77;;;;;;;9.08;74.68;99993.65;1796714;79;22744;-32
2021/09/22 14:19:39;;;;;;;3.33;2.70;;;;;;;9.01;74.74;99993.64;1728502;81;21072;-32
2021/09/22 14:22:08;;;;;;;4.12;2.50;;;;;;;9.00;74.79;99988.43;1719027;83;21148;-32
2021/09/22 14:24:35;;;;;;;3.33;2.50;;;;;;;8.99;74.84;99992.78;1723974;82;21617;-31
2021/09/22 14:27:06;;;;;;;4.00;2.12;;;;;;;8.97;75.04;99986.67;1715435;82;21005;-31
2021/09/22 14:29:32;;;;;;;6.65;2.75;;;;;;;8.97;74.99;99994.50;1723944;82;21540;-36
2021/09/22 14:32:01;;;;;;;3.77;1.80;;;;;;;8.98;75.22;99991.02;1724132;83;21041;-37
2021/09/22 14:34:29;;;;;;;1.90;1.70;;;;;;;8.99;75.16;99987.56;1706803;83;21120;-32
2021/09/22 14:36:57;;;;;;;2.35;1.60;;;;;;;8.99;75.02;99988.87;1728359;83;21557;-38
2021/09/22 14:39:24;;;;;;;2.35;1.67;;;;;;;9.03;75.13;99984.50;1729398;81;21177;-32
2021/09/22 14:41:51;;;;;;;2.80;1.77;;;;;;;9.06;74.91;99989.30;1730982;83;21107;-37
2021/09/22 14:44:18;;;;;;;1.72;1.50;;;;;;;9.08;75.13;99994.52;1731085;83;21057;-37
2021/09/22 14:46:46;;;;;;;2.52;2.30;;;;;;;9.11;74.78;99984.53;1730905;83;21052;-37
2021/09/22 14:49:13;;;;;;;1.90;1.70;;;;;;;9.13;74.82;99983.66;1731064;83;21626;-37
2021/09/22 14:51:42;;;;;;;2.95;1.62;;;;;;;9.16;74.51;99976.25;1731059;82;21056;-37
